Sid Moller — WDF9421 — position and weather

sailwx.info

Track history (hours):
 
Tides and Currents Weather Stations Pressure Air Temp Water Temp Dewpoint Dewpoint Depression Visibility Wind Speed Wind Dir Waves Ship Positions

Sid Moller

Owner: Genesis Marine, LLC, Houston, TX. More information available from US FCC via Universal Licensing System and Coast Guard Vessel Documentation Center.

Last reported at 2016-Feb-06 10:33 UTC. Time now 2016-Feb-07 15:04 UTC.
Position N 29°41' W 095°00'.

; draft 3.3 m.

MMSI: 367504980.

Date/timePositionNaut miles runAvg speedWind from/ knotsBaromVisibWave heightAir tempDewpointWater temp
2016-Feb-06 10:33N 29°41' W 095°00'0 0.0
2016-Feb-06 09:33N 29°41' W 095°00'0 0.0
2016-Feb-06 08:33N 29°41' W 095°00'0 0.0
2016-Feb-06 07:33N 29°41' W 095°00'0 0.2
2016-Feb-06 06:33N 29°41' W 095°00'1 1.0
2016-Feb-06 05:33N 29°41' W 094°59'4 3.7
2016-Feb-06 04:33N 29°44' W 095°02'4 3.9
2016-Feb-06 03:33N 29°41' W 094°59'7 6.7
2016-Feb-06 02:33N 29°35' W 094°56'7 7.2
2016-Feb-06 01:33N 29°29' W 094°52'  
2016-Jan-29 15:10N 28°54' W 095°23'  
Track history (hours):
 
Tides and Currents Weather Stations Pressure Air Temp Water Temp Dewpoint Dewpoint Depression Visibility Wind Speed Wind Dir Waves Ship Positions

Sid Moller

Owner: Genesis Marine, LLC, Houston, TX. More information available from US FCC via Universal Licensing System and Coast Guard Vessel Documentation Center.

Last reported at 2016-Feb-06 10:33 UTC. Time now 2016-Feb-07 15:04 UTC.
Position N 29°41' W 095°00'.

; draft 3.3 m.

MMSI: 367504980.

Date/timePositionNaut miles runAvg speedWind from/ knotsBaromVisibWave heightAir tempDewpointWater temp
2016-Feb-06 10:33N 29°41' W 095°00'0 0.0
2016-Feb-06 09:33N 29°41' W 095°00'0 0.0
2016-Feb-06 08:33N 29°41' W 095°00'0 0.0
2016-Feb-06 07:33N 29°41' W 095°00'0 0.2
2016-Feb-06 06:33N 29°41' W 095°00'1 1.0
2016-Feb-06 05:33N 29°41' W 094°59'4 3.7
2016-Feb-06 04:33N 29°44' W 095°02'4 3.9
2016-Feb-06 03:33N 29°41' W 094°59'7 6.7
2016-Feb-06 02:33N 29°35' W 094°56'7 7.2
2016-Feb-06 01:33N 29°29' W 094°52'  
2016-Jan-29 15:10N 28°54' W 095°23'  

Dump ship's entire track history